sensor_id;sensor_type;location;lat;lon;timestamp;pressure;altitude;pressure_sealevel;temperature;humidity
7376;BME280;3728;42.266;24.944;2022-10-31T00:01:30;99806.66;;;14.08;59.46
7376;BME280;3728;42.266;24.944;2022-10-31T00:03:59;99804.41;;;13.73;59.61
7376;BME280;3728;42.266;24.944;2022-10-31T00:06:27;99796.88;;;13.37;60.41
7376;BME280;3728;42.266;24.944;2022-10-31T00:09:00;99797.19;;;13.18;61.49
7376;BME280;3728;42.266;24.944;2022-10-31T00:11:31;99798.59;;;13.16;62.07
7376;BME280;3728;42.266;24.944;2022-10-31T00:13:59;99793.44;;;12.93;62.77
7376;BME280;3728;42.266;24.944;2022-10-31T00:16:29;99799.44;;;12.77;63.44
7376;BME280;3728;42.266;24.944;2022-10-31T00:19:02;99799.47;;;12.85;63.74
7376;BME280;3728;42.266;24.944;2022-10-31T00:21:31;99793.75;;;12.83;64.86
7376;BME280;3728;42.266;24.944;2022-10-31T00:24:00;99797.31;;;12.87;66.17
7376;BME280;3728;42.266;24.944;2022-10-31T00:26:29;99791.91;;;12.92;66.40
7376;BME280;3728;42.266;24.944;2022-10-31T00:28:58;99792.81;;;12.96;66.92
7376;BME280;3728;42.266;24.944;2022-10-31T00:31:26;99801.63;;;12.92;67.58
7376;BME280;3728;42.266;24.944;2022-10-31T00:33:54;99797.44;;;12.91;68.57
7376;BME280;3728;42.266;24.944;2022-10-31T00:36:21;99799.47;;;13.02;68.42
7376;BME280;3728;42.266;24.944;2022-10-31T00:38:49;99795.19;;;13.15;69.10
7376;BME280;3728;42.266;24.944;2022-10-31T00:41:17;99801.53;;;13.23;69.35
7376;BME280;3728;42.266;24.944;2022-10-31T00:43:45;99802.59;;;13.39;68.22
7376;BME280;3728;42.266;24.944;2022-10-31T00:46:13;99795.31;;;13.53;67.78
7376;BME280;3728;42.266;24.944;2022-10-31T00:48:42;99797.00;;;13.57;67.75
7376;BME280;3728;42.266;24.944;2022-10-31T00:51:10;99795.13;;;13.66;67.77
7376;BME280;3728;42.266;24.944;2022-10-31T00:53:39;99794.97;;;13.80;66.95
7376;BME280;3728;42.266;24.944;2022-10-31T00:56:07;99809.91;;;13.97;66.87
7376;BME280;3728;42.266;24.944;2022-10-31T00:58:35;99808.06;;;13.97;67.63
7376;BME280;3728;42.266;24.944;2022-10-31T01:01:03;99804.47;;;14.02;66.40
7376;BME280;3728;42.266;24.944;2022-10-31T01:03:32;99800.22;;;14.18;66.02
7376;BME280;3728;42.266;24.944;2022-10-31T01:06:05;99803.19;;;14.16;65.95
7376;BME280;3728;42.266;24.944;2022-10-31T01:08:37;99802.56;;;14.19;65.50
7376;BME280;3728;42.266;24.944;2022-10-31T01:11:15;99804.59;;;14.14;65.78
7376;BME280;3728;42.266;24.944;2022-10-31T01:13:44;99804.19;;;14.03;65.60
7376;BME280;3728;42.266;24.944;2022-10-31T01:16:17;99804.75;;;14.17;65.72
7376;BME280;3728;42.266;24.944;2022-10-31T01:18:49;99797.53;;;14.06;66.23
7376;BME280;3728;42.266;24.944;2022-10-31T01:21:21;99804.47;;;14.10;66.94
7376;BME280;3728;42.266;24.944;2022-10-31T01:23:52;99797.66;;;14.09;67.28
7376;BME280;3728;42.266;24.944;2022-10-31T01:26:26;99787.94;;;14.01;66.96
7376;BME280;3728;42.266;24.944;2022-10-31T01:29:04;99788.56;;;13.98;67.88
7376;BME280;3728;42.266;24.944;2022-10-31T01:31:37;99794.59;;;13.90;69.23
7376;BME280;3728;42.266;24.944;2022-10-31T01:34:06;99786.53;;;13.95;69.12
7376;BME280;3728;42.266;24.944;2022-10-31T01:36:36;99789.56;;;14.14;68.62
7376;BME280;3728;42.266;24.944;2022-10-31T01:39:11;99783.22;;;14.15;69.46
7376;BME280;3728;42.266;24.944;2022-10-31T01:41:42;99784.59;;;14.21;70.01
7376;BME280;3728;42.266;24.944;2022-10-31T01:47:08;99785.63;;;14.37;69.90
7376;BME280;3728;42.266;24.944;2022-10-31T01:49:45;99788.59;;;14.36;70.26
7376;BME280;3728;42.266;24.944;2022-10-31T01:52:29;99787.63;;;14.41;70.50
7376;BME280;3728;42.266;24.944;2022-10-31T01:58:04;99792.56;;;14.42;70.28
7376;BME280;3728;42.266;24.944;2022-10-31T02:00:37;99786.84;;;14.40;70.38
7376;BME280;3728;42.266;24.944;2022-10-31T02:03:06;99791.22;;;14.36;70.28
7376;BME280;3728;42.266;24.944;2022-10-31T02:05:34;99779.72;;;14.41;70.23
7376;BME280;3728;42.266;24.944;2022-10-31T02:10:58;99780.50;;;14.41;69.55
7376;BME280;3728;42.266;24.944;2022-10-31T02:13:28;99781.16;;;14.29;70.20
7376;BME280;3728;42.266;24.944;2022-10-31T02:15:58;99791.88;;;14.24;70.01
7376;BME280;3728;42.266;24.944;2022-10-31T02:18:29;99784.25;;;14.23;70.26
7376;BME280;3728;42.266;24.944;2022-10-31T02:21:09;99781.78;;;14.26;70.19
7376;BME280;3728;42.266;24.944;2022-10-31T02:31:59;99797.31;;;14.19;70.61
7376;BME280;3728;42.266;24.944;2022-10-31T02:37:14;99798.34;;;14.35;70.52
7376;BME280;3728;42.266;24.944;2022-10-31T02:40:02;99806.06;;;14.41;70.37
7376;BME280;3728;42.266;24.944;2022-10-31T02:43:19;99801.81;;;14.57;68.92
7376;BME280;3728;42.266;24.944;2022-10-31T02:46:03;99806.03;;;14.49;69.23
7376;BME280;3728;42.266;24.944;2022-10-31T02:48:53;99806.25;;;14.65;69.26
7376;BME280;3728;42.266;24.944;2022-10-31T02:51:23;99797.16;;;14.54;69.97
7376;BME280;3728;42.266;24.944;2022-10-31T02:53:51;99796.72;;;14.52;69.52
7376;BME280;3728;42.266;24.944;2022-10-31T02:56:19;99802.81;;;14.44;70.57
7376;BME280;3728;42.266;24.944;2022-10-31T02:59:03;99818.50;;;14.61;70.82
7376;BME280;3728;42.266;24.944;2022-10-31T03:01:43;99815.84;;;14.69;70.36
7376;BME280;3728;42.266;24.944;2022-10-31T03:10:23;99817.78;;;14.81;69.33
7376;BME280;3728;42.266;24.944;2022-10-31T03:15:43;99823.75;;;14.69;70.38
7376;BME280;3728;42.266;24.944;2022-10-31T03:18:39;99821.56;;;14.71;69.93
7376;BME280;3728;42.266;24.944;2022-10-31T03:21:22;99830.06;;;14.77;69.74
7376;BME280;3728;42.266;24.944;2022-10-31T03:23:59;99828.63;;;14.79;70.35
7376;BME280;3728;42.266;24.944;2022-10-31T03:26:28;99836.09;;;14.77;70.14
7376;BME280;3728;42.266;24.944;2022-10-31T03:29:00;99834.06;;;14.83;69.63
7376;BME280;3728;42.266;24.944;2022-10-31T03:32:01;99838.88;;;14.81;69.99
7376;BME280;3728;42.266;24.944;2022-10-31T03:34:36;99839.88;;;14.97;69.54
7376;BME280;3728;42.266;24.944;2022-10-31T03:37:09;99838.00;;;14.97;69.50
7376;BME280;3728;42.266;24.944;2022-10-31T03:39:40;99833.00;;;15.04;69.49
7376;BME280;3728;42.266;24.944;2022-10-31T03:42:12;99847.84;;;15.09;68.50
7376;BME280;3728;42.266;24.944;2022-10-31T03:45:02;99843.66;;;15.08;68.76
7376;BME280;3728;42.266;24.944;2022-10-31T03:47:34;99848.50;;;15.06;69.22
7376;BME280;3728;42.266;24.944;2022-10-31T03:50:08;99846.75;;;15.10;68.84
7376;BME280;3728;42.266;24.944;2022-10-31T03:52:43;99850.16;;;15.11;68.92
7376;BME280;3728;42.266;24.944;2022-10-31T03:55:28;99851.84;;;15.15;68.95
7376;BME280;3728;42.266;24.944;2022-10-31T03:58:29;99849.97;;;15.16;68.52
7376;BME280;3728;42.266;24.944;2022-10-31T04:01:06;99856.28;;;15.23;68.24
7376;BME280;3728;42.266;24.944;2022-10-31T04:03:39;99850.34;;;15.26;68.17
7376;BME280;3728;42.266;24.944;2022-10-31T04:06:11;99862.47;;;15.27;68.33
7376;BME280;3728;42.266;24.944;2022-10-31T04:08:45;99855.50;;;15.23;68.52
7376;BME280;3728;42.266;24.944;2022-10-31T04:11:20;99852.50;;;15.33;67.73
7376;BME280;3728;42.266;24.944;2022-10-31T04:14:11;99852.63;;;15.36;67.61
7376;BME280;3728;42.266;24.944;2022-10-31T04:16:41;99857.63;;;15.29;67.95
7376;BME280;3728;42.266;24.944;2022-10-31T04:19:12;99856.56;;;15.30;67.64
7376;BME280;3728;42.266;24.944;2022-10-31T04:21:40;99862.00;;;15.25;67.78
7376;BME280;3728;42.266;24.944;2022-10-31T04:24:10;99857.72;;;15.21;68.14
7376;BME280;3728;42.266;24.944;2022-10-31T04:26:39;99869.34;;;15.20;68.24
7376;BME280;3728;42.266;24.944;2022-10-31T04:29:06;99869.78;;;15.22;68.50
7376;BME280;3728;42.266;24.944;2022-10-31T04:31:34;99883.47;;;15.24;68.55
7376;BME280;3728;42.266;24.944;2022-10-31T04:34:01;99879.78;;;15.37;68.38
7376;BME280;3728;42.266;24.944;2022-10-31T04:36:30;99872.19;;;15.35;67.90
7376;BME280;3728;42.266;24.944;2022-10-31T04:38:57;99886.66;;;15.29;67.98
7376;BME280;3728;42.266;24.944;2022-10-31T04:41:35;99875.41;;;15.41;67.24
7376;BME280;3728;42.266;24.944;2022-10-31T04:44:08;99874.59;;;15.49;66.23
7376;BME280;3728;42.266;24.944;2022-10-31T04:46:35;99883.19;;;15.37;66.56
7376;BME280;3728;42.266;24.944;2022-10-31T04:49:04;99886.22;;;15.27;67.12
7376;BME280;3728;42.266;24.944;2022-10-31T04:51:31;99896.00;;;15.27;67.40
7376;BME280;3728;42.266;24.944;2022-10-31T04:53:59;99897.09;;;15.26;67.30
7376;BME280;3728;42.266;24.944;2022-10-31T04:56:27;99899.66;;;15.34;67.13
7376;BME280;3728;42.266;24.944;2022-10-31T04:58:58;99902.19;;;15.31;67.03
7376;BME280;3728;42.266;24.944;2022-10-31T05:01:29;99907.97;;;15.24;67.48
7376;BME280;3728;42.266;24.944;2022-10-31T05:03:58;99915.94;;;15.36;67.24
7376;BME280;3728;42.266;24.944;2022-10-31T05:06:27;99924.59;;;15.45;66.63
7376;BME280;3728;42.266;24.944;2022-10-31T05:08:56;99925.72;;;15.44;67.04
7376;BME280;3728;42.266;24.944;2022-10-31T05:11:24;99925.25;;;15.42;67.33
7376;BME280;3728;42.266;24.944;2022-10-31T05:13:54;99933.44;;;15.49;67.34
7376;BME280;3728;42.266;24.944;2022-10-31T05:16:59;99937.50;;;15.47;67.21
7376;BME280;3728;42.266;24.944;2022-10-31T05:20:02;99934.88;;;15.47;67.52
7376;BME280;3728;42.266;24.944;2022-10-31T05:23:05;99940.00;;;15.64;67.41
7376;BME280;3728;42.266;24.944;2022-10-31T05:25:34;99937.94;;;15.69;67.37
7376;BME280;3728;42.266;24.944;2022-10-31T05:28:03;99941.28;;;15.58;67.52
7376;BME280;3728;42.266;24.944;2022-10-31T05:30:32;99942.78;;;15.47;67.65
7376;BME280;3728;42.266;24.944;2022-10-31T05:33:02;99947.63;;;15.45;68.02
7376;BME280;3728;42.266;24.944;2022-10-31T05:35:48;99951.63;;;15.42;68.42
7376;BME280;3728;42.266;24.944;2022-10-31T05:38:34;99967.75;;;15.49;68.84
7376;BME280;3728;42.266;24.944;2022-10-31T05:41:13;99973.63;;;15.55;68.27
7376;BME280;3728;42.266;24.944;2022-10-31T05:43:45;99973.50;;;15.51;68.60
7376;BME280;3728;42.266;24.944;2022-10-31T05:46:14;99973.22;;;15.44;69.61
7376;BME280;3728;42.266;24.944;2022-10-31T05:49:00;99974.91;;;15.49;68.82
7376;BME280;3728;42.266;24.944;2022-10-31T05:51:47;99977.34;;;15.54;68.78
7376;BME280;3728;42.266;24.944;2022-10-31T05:54:14;99980.44;;;15.56;68.48
7376;BME280;3728;42.266;24.944;2022-10-31T05:56:44;99977.56;;;15.40;69.36
7376;BME280;3728;42.266;24.944;2022-10-31T05:59:11;99979.75;;;15.38;68.78
7376;BME280;3728;42.266;24.944;2022-10-31T06:01:41;99985.72;;;15.56;68.10
7376;BME280;3728;42.266;24.944;2022-10-31T06:04:24;99986.69;;;15.51;67.90
7376;BME280;3728;42.266;24.944;2022-10-31T06:06:51;99995.41;;;15.43;68.71
7376;BME280;3728;42.266;24.944;2022-10-31T06:09:19;99998.53;;;15.37;69.67
7376;BME280;3728;42.266;24.944;2022-10-31T06:11:49;100004.97;;;15.27;70.30
7376;BME280;3728;42.266;24.944;2022-10-31T06:14:37;100007.28;;;15.29;70.47
7376;BME280;3728;42.266;24.944;2022-10-31T06:17:04;100011.47;;;15.30;70.35
7376;BME280;3728;42.266;24.944;2022-10-31T06:19:47;100021.00;;;15.51;70.35
7376;BME280;3728;42.266;24.944;2022-10-31T06:22:19;100022.06;;;15.80;69.37
7376;BME280;3728;42.266;24.944;2022-10-31T06:24:47;100021.53;;;16.07;68.24
7376;BME280;3728;42.266;24.944;2022-10-31T06:27:29;100018.38;;;16.34;64.82
7376;BME280;3728;42.266;24.944;2022-10-31T06:30:02;100009.44;;;16.59;63.95
7376;BME280;3728;42.266;24.944;2022-10-31T06:32:34;100023.16;;;16.85;62.29
7376;BME280;3728;42.266;24.944;2022-10-31T06:35:01;100015.00;;;17.27;60.66
7376;BME280;3728;42.266;24.944;2022-10-31T06:37:32;100019.06;;;17.72;58.70
7376;BME280;3728;42.266;24.944;2022-10-31T06:40:08;100022.81;;;17.84;58.10
7376;BME280;3728;42.266;24.944;2022-10-31T06:43:00;100018.50;;;17.79;58.50
7376;BME280;3728;42.266;24.944;2022-10-31T06:45:29;100020.31;;;18.30;56.84
7376;BME280;3728;42.266;24.944;2022-10-31T06:48:13;100027.66;;;18.49;55.95
7376;BME280;3728;42.266;24.944;2022-10-31T06:51:10;100020.25;;;18.42;55.54
7376;BME280;3728;42.266;24.944;2022-10-31T06:53:37;100029.41;;;18.45;55.76
7376;BME280;3728;42.266;24.944;2022-10-31T06:56:07;100029.00;;;18.43;55.78
7376;BME280;3728;42.266;24.944;2022-10-31T06:58:40;100030.16;;;18.58;55.63
7376;BME280;3728;42.266;24.944;2022-10-31T07:01:09;100029.41;;;18.73;55.44
7376;BME280;3728;42.266;24.944;2022-10-31T07:03:41;100031.06;;;18.93;54.04
7376;BME280;3728;42.266;24.944;2022-10-31T07:06:08;100035.00;;;18.83;54.77
7376;BME280;3728;42.266;24.944;2022-10-31T07:08:37;100046.56;;;18.91;54.58
7376;BME280;3728;42.266;24.944;2022-10-31T07:11:06;100047.75;;;18.93;54.72
7376;BME280;3728;42.266;24.944;2022-10-31T07:13:33;100045.53;;;19.11;54.26
7376;BME280;3728;42.266;24.944;2022-10-31T07:16:05;100043.81;;;19.19;53.61
7376;BME280;3728;42.266;24.944;2022-10-31T07:18:38;100045.78;;;19.37;53.46
7376;BME280;3728;42.266;24.944;2022-10-31T07:21:07;100043.53;;;19.55;52.63
7376;BME280;3728;42.266;24.944;2022-10-31T07:23:37;100042.88;;;19.77;51.97
7376;BME280;3728;42.266;24.944;2022-10-31T07:26:24;100032.81;;;19.86;52.01
7376;BME280;3728;42.266;24.944;2022-10-31T07:28:52;100037.66;;;20.19;50.88
7376;BME280;3728;42.266;24.944;2022-10-31T07:31:22;100032.75;;;20.21;51.66
7376;BME280;3728;42.266;24.944;2022-10-31T07:33:55;100039.56;;;20.37;52.08
7376;BME280;3728;42.266;24.944;2022-10-31T07:36:26;100036.94;;;20.83;49.79
7376;BME280;3728;42.266;24.944;2022-10-31T07:38:58;100025.41;;;20.98;49.49
7376;BME280;3728;42.266;24.944;2022-10-31T07:41:26;100032.13;;;21.37;48.36
7376;BME280;3728;42.266;24.944;2022-10-31T07:43:54;100022.56;;;21.36;48.33
7376;BME280;3728;42.266;24.944;2022-10-31T07:46:40;100026.31;;;21.58;48.07
7376;BME280;3728;42.266;24.944;2022-10-31T07:49:33;100028.13;;;22.06;47.14
7376;BME280;3728;42.266;24.944;2022-10-31T07:52:19;100020.75;;;22.66;45.44
7376;BME280;3728;42.266;24.944;2022-10-31T07:55:06;100026.75;;;22.56;45.64
7376;BME280;3728;42.266;24.944;2022-10-31T07:57:35;100022.75;;;22.76;45.36
7376;BME280;3728;42.266;24.944;2022-10-31T08:00:08;100031.53;;;23.28;43.84
7376;BME280;3728;42.266;24.944;2022-10-31T08:02:45;100028.59;;;22.92;44.48
7376;BME280;3728;42.266;24.944;2022-10-31T08:05:51;100029.28;;;22.82;44.83
7376;BME280;3728;42.266;24.944;2022-10-31T08:08:32;100032.66;;;22.76;44.85
7376;BME280;3728;42.266;24.944;2022-10-31T08:11:05;100028.13;;;23.34;43.21
7376;BME280;3728;42.266;24.944;2022-10-31T08:13:33;100032.25;;;23.21;44.17
7376;BME280;3728;42.266;24.944;2022-10-31T08:16:01;100026.97;;;23.28;43.48
7376;BME280;3728;42.266;24.944;2022-10-31T08:18:34;100025.03;;;23.22;43.58
7376;BME280;3728;42.266;24.944;2022-10-31T08:21:05;100033.84;;;23.98;41.51
7376;BME280;3728;42.266;24.944;2022-10-31T08:23:34;100033.75;;;23.15;43.88
7376;BME280;3728;42.266;24.944;2022-10-31T08:26:05;100030.72;;;23.20;43.92
7376;BME280;3728;42.266;24.944;2022-10-31T08:28:32;100031.69;;;23.49;44.05
7376;BME280;3728;42.266;24.944;2022-10-31T08:31:01;100028.44;;;23.83;42.79
7376;BME280;3728;42.266;24.944;2022-10-31T08:33:54;100037.06;;;24.31;42.31
7376;BME280;3728;42.266;24.944;2022-10-31T08:36:45;100038.25;;;24.62;42.20
7376;BME280;3728;42.266;24.944;2022-10-31T08:39:19;100040.97;;;24.76;41.12
7376;BME280;3728;42.266;24.944;2022-10-31T08:41:48;100042.53;;;24.77;41.83
7376;BME280;3728;42.266;24.944;2022-10-31T08:44:16;100046.31;;;24.59;40.99
7376;BME280;3728;42.266;24.944;2022-10-31T08:46:44;100045.06;;;24.24;42.00
7376;BME280;3728;42.266;24.944;2022-10-31T08:49:12;100043.13;;;24.18;41.73
7376;BME280;3728;42.266;24.944;2022-10-31T08:51:42;100048.09;;;24.16;42.34
7376;BME280;3728;42.266;24.944;2022-10-31T08:54:09;100038.09;;;24.06;42.08
7376;BME280;3728;42.266;24.944;2022-10-31T08:56:56;100037.47;;;24.37;41.26
7376;BME280;3728;42.266;24.944;2022-10-31T08:59:38;100040.94;;;24.55;40.41
7376;BME280;3728;42.266;24.944;2022-10-31T09:02:21;100039.03;;;24.66;40.89
7376;BME280;3728;42.266;24.944;2022-10-31T09:04:52;100045.59;;;25.07;39.99
7376;BME280;3728;42.266;24.944;2022-10-31T09:07:19;100040.56;;;25.52;39.45
7376;BME280;3728;42.266;24.944;2022-10-31T09:09:47;100043.91;;;25.84;38.66
7376;BME280;3728;42.266;24.944;2022-10-31T09:12:17;100043.88;;;25.91;38.28
7376;BME280;3728;42.266;24.944;2022-10-31T09:15:03;100038.56;;;25.77;38.83
7376;BME280;3728;42.266;24.944;2022-10-31T09:17:49;100039.66;;;25.97;37.88
7376;BME280;3728;42.266;24.944;2022-10-31T09:20:30;100042.31;;;26.04;37.28
7376;BME280;3728;42.266;24.944;2022-10-31T09:23:00;100043.00;;;26.26;37.05
7376;BME280;3728;42.266;24.944;2022-10-31T09:25:30;100040.28;;;26.88;35.67
7376;BME280;3728;42.266;24.944;2022-10-31T09:28:23;100033.50;;;26.73;35.44
7376;BME280;3728;42.266;24.944;2022-10-31T09:30:53;100038.47;;;27.22;34.90
7376;BME280;3728;42.266;24.944;2022-10-31T09:33:44;100031.72;;;27.03;34.88
7376;BME280;3728;42.266;24.944;2022-10-31T09:36:42;100040.06;;;26.68;35.29
7376;BME280;3728;42.266;24.944;2022-10-31T09:39:17;100041.53;;;26.76;35.52
7376;BME280;3728;42.266;24.944;2022-10-31T09:51:10;100040.63;;;27.41;33.83
7376;BME280;3728;42.266;24.944;2022-10-31T09:57:13;100022.78;;;27.54;33.42
7376;BME280;3728;42.266;24.944;2022-10-31T09:59:56;100016.63;;;27.88;32.93
7376;BME280;3728;42.266;24.944;2022-10-31T10:02:47;100022.63;;;27.68;33.66
7376;BME280;3728;42.266;24.944;2022-10-31T10:05:39;100011.91;;;27.95;32.92
7376;BME280;3728;42.266;24.944;2022-10-31T10:08:33;100010.94;;;28.12;32.01
7376;BME280;3728;42.266;24.944;2022-10-31T10:14:53;100014.34;;;28.16;33.28
7376;BME280;3728;42.266;24.944;2022-10-31T10:29:50;99994.06;;;29.08;31.49
7376;BME280;3728;42.266;24.944;2022-10-31T10:32:24;99990.03;;;28.96;31.46
7376;BME280;3728;42.266;24.944;2022-10-31T10:35:22;99982.72;;;29.17;31.43
7376;BME280;3728;42.266;24.944;2022-10-31T10:40:46;99982.44;;;29.34;31.56
7376;BME280;3728;42.266;24.944;2022-10-31T10:43:24;99981.31;;;29.32;30.76
7376;BME280;3728;42.266;24.944;2022-10-31T10:49:28;99964.94;;;29.58;30.65
7376;BME280;3728;42.266;24.944;2022-10-31T10:52:40;99972.72;;;29.76;30.51
7376;BME280;3728;42.266;24.944;2022-10-31T10:55:41;99970.41;;;29.94;29.59
7376;BME280;3728;42.266;24.944;2022-10-31T10:58:19;99963.09;;;30.11;29.36
7376;BME280;3728;42.266;24.944;2022-10-31T11:00:47;99969.25;;;30.27;30.07
7376;BME280;3728;42.266;24.944;2022-10-31T11:03:21;99970.22;;;30.37;30.67
7376;BME280;3728;42.266;24.944;2022-10-31T11:05:54;99972.00;;;30.92;28.54
7376;BME280;3728;42.266;24.944;2022-10-31T11:08:29;99968.00;;;31.25;27.81
7376;BME280;3728;42.266;24.944;2022-10-31T11:13:48;99962.47;;;31.57;28.41
7376;BME280;3728;42.266;24.944;2022-10-31T11:19:06;99955.44;;;30.41;30.09
7376;BME280;3728;42.266;24.944;2022-10-31T11:21:34;99951.97;;;29.89;29.95
7376;BME280;3728;42.266;24.944;2022-10-31T11:24:25;99952.03;;;29.50;30.15
7376;BME280;3728;42.266;24.944;2022-10-31T11:27:11;99949.03;;;29.84;30.63
7376;BME280;3728;42.266;24.944;2022-10-31T11:29:47;99949.69;;;30.39;30.38
7376;BME280;3728;42.266;24.944;2022-10-31T11:32:23;99944.31;;;30.84;29.33
7376;BME280;3728;42.266;24.944;2022-10-31T11:34:55;99945.03;;;31.71;27.56
7376;BME280;3728;42.266;24.944;2022-10-31T11:37:35;99937.28;;;32.70;26.07
7376;BME280;3728;42.266;24.944;2022-10-31T11:40:17;99941.38;;;33.09;25.74
7376;BME280;3728;42.266;24.944;2022-10-31T11:42:56;99936.03;;;32.37;26.67
7376;BME280;3728;42.266;24.944;2022-10-31T11:45:28;99936.75;;;32.63;26.62
7376;BME280;3728;42.266;24.944;2022-10-31T11:47:58;99942.13;;;33.31;25.89
7376;BME280;3728;42.266;24.944;2022-10-31T11:50:40;99940.34;;;33.59;25.13
7376;BME280;3728;42.266;24.944;2022-10-31T11:53:27;99939.41;;;33.53;24.50
7376;BME280;3728;42.266;24.944;2022-10-31T11:56:13;99941.34;;;33.52;25.93
7376;BME280;3728;42.266;24.944;2022-10-31T11:58:43;99935.63;;;33.81;25.34
7376;BME280;3728;42.266;24.944;2022-10-31T12:01:30;99934.22;;;34.07;25.11
7376;BME280;3728;42.266;24.944;2022-10-31T12:04:10;99933.94;;;34.14;24.84
7376;BME280;3728;42.266;24.944;2022-10-31T12:07:03;99937.50;;;34.02;24.73
7376;BME280;3728;42.266;24.944;2022-10-31T12:09:34;99945.84;;;33.68;25.08
7376;BME280;3728;42.266;24.944;2022-10-31T12:12:11;99939.16;;;33.38;25.33
7376;BME280;3728;42.266;24.944;2022-10-31T12:15:22;99937.44;;;33.32;25.02
7376;BME280;3728;42.266;24.944;2022-10-31T12:27:25;99940.53;;;35.77;23.09
7376;BME280;3728;42.266;24.944;2022-10-31T12:30:13;99933.72;;;35.21;23.56
7376;BME280;3728;42.266;24.944;2022-10-31T12:36:34;99934.75;;;33.32;25.15
7376;BME280;3728;42.266;24.944;2022-10-31T12:39:25;99931.56;;;32.56;25.84
7376;BME280;3728;42.266;24.944;2022-10-31T12:44:48;99909.94;;;31.55;27.64
7376;BME280;3728;42.266;24.944;2022-10-31T13:00:12;99912.66;;;30.53;28.54
7376;BME280;3728;42.266;24.944;2022-10-31T13:06:08;99911.84;;;30.07;29.41
7376;BME280;3728;42.266;24.944;2022-10-31T13:08:47;99916.03;;;30.08;29.08
7376;BME280;3728;42.266;24.944;2022-10-31T13:11:24;99921.31;;;29.79;30.11
7376;BME280;3728;42.266;24.944;2022-10-31T13:14:02;99910.47;;;29.63;29.53
7376;BME280;3728;42.266;24.944;2022-10-31T13:16:54;99915.28;;;29.36;29.75
7376;BME280;3728;42.266;24.944;2022-10-31T13:19:42;99918.66;;;29.60;29.41
7376;BME280;3728;42.266;24.944;2022-10-31T13:22:16;99911.50;;;29.34;30.36
7376;BME280;3728;42.266;24.944;2022-10-31T13:25:14;99912.97;;;28.95;31.22
7376;BME280;3728;42.266;24.944;2022-10-31T13:31:48;99910.19;;;28.79;31.83
7376;BME280;3728;42.266;24.944;2022-10-31T13:34:46;99910.75;;;28.90;30.61
7376;BME280;3728;42.266;24.944;2022-10-31T13:37:35;99906.72;;;28.79;31.49
7376;BME280;3728;42.266;24.944;2022-10-31T13:40:25;99912.63;;;28.93;30.24
7376;BME280;3728;42.266;24.944;2022-10-31T13:45:54;99908.78;;;28.94;32.11
7376;BME280;3728;42.266;24.944;2022-10-31T13:51:00;99912.13;;;29.41;31.17
7376;BME280;3728;42.266;24.944;2022-10-31T13:56:30;99908.72;;;29.18;31.69
7376;BME280;3728;42.266;24.944;2022-10-31T14:04:26;99905.28;;;28.51;32.55
7376;BME280;3728;42.266;24.944;2022-10-31T14:07:18;99905.41;;;28.67;32.05
7376;BME280;3728;42.266;24.944;2022-10-31T14:12:41;99908.44;;;28.23;32.97
7376;BME280;3728;42.266;24.944;2022-10-31T14:20:39;99915.72;;;27.35;34.85
7376;BME280;3728;42.266;24.944;2022-10-31T14:23:34;99911.13;;;27.02;35.78
7376;BME280;3728;42.266;24.944;2022-10-31T14:28:55;99907.66;;;26.61;36.32
7376;BME280;3728;42.266;24.944;2022-10-31T14:31:28;99902.09;;;26.37;36.71
7376;BME280;3728;42.266;24.944;2022-10-31T14:40:11;99908.53;;;25.92;39.20
7376;BME280;3728;42.266;24.944;2022-10-31T14:51:26;99914.78;;;26.37;39.55
7376;BME280;3728;42.266;24.944;2022-10-31T14:54:05;99911.47;;;26.63;38.89
7376;BME280;3728;42.266;24.944;2022-10-31T14:56:46;99910.91;;;26.86;38.12
7376;BME280;3728;42.266;24.944;2022-10-31T14:59:25;99913.94;;;26.91;37.71
7376;BME280;3728;42.266;24.944;2022-10-31T15:02:08;99918.78;;;26.63;38.21
7376;BME280;3728;42.266;24.944;2022-10-31T15:04:43;99914.47;;;26.24;38.67
7376;BME280;3728;42.266;24.944;2022-10-31T15:07:22;99907.34;;;25.97;39.39
7376;BME280;3728;42.266;24.944;2022-10-31T15:10:04;99913.66;;;25.69;39.77
7376;BME280;3728;42.266;24.944;2022-10-31T15:12:35;99920.25;;;25.40;40.56
7376;BME280;3728;42.266;24.944;2022-10-31T15:15:21;99915.72;;;25.15;41.35
7376;BME280;3728;42.266;24.944;2022-10-31T15:17:58;99918.09;;;24.96;42.15
7376;BME280;3728;42.266;24.944;2022-10-31T15:20:29;99921.94;;;24.81;42.42
7376;BME280;3728;42.266;24.944;2022-10-31T15:23:01;99916.59;;;24.63;42.68
7376;BME280;3728;42.266;24.944;2022-10-31T15:25:33;99925.38;;;24.49;41.89
7376;BME280;3728;42.266;24.944;2022-10-31T15:28:13;99923.84;;;24.34;42.60
7376;BME280;3728;42.266;24.944;2022-10-31T15:30:59;99926.13;;;24.22;42.82
7376;BME280;3728;42.266;24.944;2022-10-31T15:33:38;99931.47;;;24.15;43.34
7376;BME280;3728;42.266;24.944;2022-10-31T15:36:21;99931.84;;;24.10;44.23
7376;BME280;3728;42.266;24.944;2022-10-31T15:38:56;99929.91;;;24.00;43.86
7376;BME280;3728;42.266;24.944;2022-10-31T15:44:03;99934.03;;;23.79;43.75
7376;BME280;3728;42.266;24.944;2022-10-31T15:47:00;99938.97;;;23.70;43.97
7376;BME280;3728;42.266;24.944;2022-10-31T15:49:31;99942.41;;;23.67;43.75
7376;BME280;3728;42.266;24.944;2022-10-31T15:52:16;99947.34;;;23.58;43.46
7376;BME280;3728;42.266;24.944;2022-10-31T15:57:48;99945.63;;;23.26;44.34
7376;BME280;3728;42.266;24.944;2022-10-31T16:00:24;99954.38;;;23.23;44.82
7376;BME280;3728;42.266;24.944;2022-10-31T16:05:46;99960.34;;;22.98;45.07
7376;BME280;3728;42.266;24.944;2022-10-31T16:08:36;99966.34;;;22.85;45.39
7376;BME280;3728;42.266;24.944;2022-10-31T16:13:51;99969.78;;;22.82;45.75
7376;BME280;3728;42.266;24.944;2022-10-31T16:16:22;99970.69;;;22.60;46.53
7376;BME280;3728;42.266;24.944;2022-10-31T16:19:19;99977.06;;;22.44;46.58
7376;BME280;3728;42.266;24.944;2022-10-31T16:22:06;99975.06;;;22.34;46.88
7376;BME280;3728;42.266;24.944;2022-10-31T16:24:53;99988.34;;;22.31;46.44
7376;BME280;3728;42.266;24.944;2022-10-31T16:27:30;99989.09;;;22.28;46.42
7376;BME280;3728;42.266;24.944;2022-10-31T16:30:00;99986.84;;;22.33;45.67
7376;BME280;3728;42.266;24.944;2022-10-31T16:32:57;100000.59;;;22.35;45.23